Time;durP1;ratioP1;P1;durP2;ratioP2;P2;SDS_P1;SDS_P2;PMS_P1;PMS_P2;Temp;Humidity;BMP_temperature;BMP_pressure;BME280_temperature;BME280_humidity;BME280_pressure;Samples;Min_cycle;Max_cycle;Signal;HPM_P1;HPM_P2
2023/01/12 00:05:41;;;;;;;165.40;118.60;;;;;;;2.74;100.00;99021.55;102599;1289;601038;-75
2023/01/12 00:08:08;;;;;;;161.10;115.90;;;;;;;2.76;100.00;99026.06;104927;1267;59338;-76
2023/01/12 00:10:34;;;;;;;154.30;109.30;;;;;;;2.79;100.00;99031.37;105045;1264;59337;-75
2023/01/12 00:13:01;;;;;;;150.40;106.30;;;;;;;2.83;100.00;99032.30;105080;1264;64297;-74
2023/01/12 00:18:13;;;;;;;145.70;102.20;;;;;;;2.88;100.00;99037.58;104980;1264;155629;-75
2023/01/12 00:20:47;;;;;;;145.70;104.60;;;;;;;2.89;100.00;99039.81;105261;1260;59330;-75
2023/01/12 00:23:13;;;;;;;145.40;104.60;;;;;;;2.91;100.00;99038.16;105296;1261;59265;-77
2023/01/12 00:25:40;;;;;;;147.60;104.70;;;;;;;2.92;100.00;99039.17;105254;1261;64749;-75
2023/01/12 00:28:06;;;;;;;150.80;104.20;;;;;;;2.93;100.00;99038.11;105290;1265;59256;-74
2023/01/12 00:30:33;;;;;;;144.80;102.20;;;;;;;2.94;100.00;99038.42;105266;1266;64682;-74
2023/01/12 00:33:00;;;;;;;135.80;97.40;;;;;;;2.94;100.00;99039.65;105288;1260;59663;-75
2023/01/12 00:35:27;;;;;;;141.90;101.60;;;;;;;2.94;100.00;99044.54;105255;1260;59557;-75
2023/01/12 00:37:53;;;;;;;128.60;87.80;;;;;;;2.95;100.00;99044.35;105258;1266;65696;-75
2023/01/12 00:40:20;;;;;;;133.00;92.80;;;;;;;2.96;100.00;99046.60;104984;1261;61288;-75
2023/01/12 00:46:29;;;;;;;122.40;86.70;;;;;;;2.98;100.00;99049.31;105230;1262;59647;-76
2023/01/12 00:48:56;;;;;;;107.30;75.90;;;;;;;3.00;100.00;99058.38;104525;1263;1002994;-75
2023/01/12 00:51:23;;;;;;;101.60;71.90;;;;;;;3.02;100.00;99063.73;105267;1262;64141;-75
2023/01/12 00:53:49;;;;;;;75.10;54.50;;;;;;;3.05;100.00;99064.17;105243;1263;61830;-75
2023/01/12 00:56:17;;;;;;;66.10;45.90;;;;;;;3.10;100.00;99065.58;105015;1264;65299;-75
2023/01/12 00:58:43;;;;;;;64.50;47.20;;;;;;;3.13;100.00;99058.79;105196;1264;59711;-75
2023/01/12 01:01:24;;;;;;;56.60;40.90;;;;;;;3.17;100.00;99052.52;104983;1263;59579;-75
2023/01/12 01:03:50;;;;;;;47.40;34.50;;;;;;;3.19;100.00;99051.59;105275;1262;65628;-75
2023/01/12 01:06:17;;;;;;;45.70;31.20;;;;;;;3.20;100.00;99053.44;104233;1269;1002761;-75
2023/01/12 01:08:44;;;;;;;45.80;30.60;;;;;;;3.22;100.00;99051.44;105257;1266;64203;-74
2023/01/12 01:11:12;;;;;;;44.40;31.10;;;;;;;3.24;100.00;99050.33;105228;1264;59526;-74
2023/01/12 01:13:40;;;;;;;41.30;29.60;;;;;;;3.25;100.00;99047.65;105104;1270;59743;-75
2023/01/12 01:16:07;;;;;;;47.70;34.40;;;;;;;3.27;100.00;99045.48;105175;1264;65618;-75
2023/01/12 01:18:34;;;;;;;47.00;34.90;;;;;;;3.28;100.00;99047.19;105174;1264;59785;-76
2023/01/12 01:21:02;;;;;;;46.90;34.70;;;;;;;3.29;100.00;99044.52;105139;1264;65595;-75
2023/01/12 01:23:33;;;;;;;44.30;32.70;;;;;;;3.30;100.00;99044.48;105181;1262;59733;-76
2023/01/12 01:26:12;;;;;;;42.80;30.70;;;;;;;3.32;100.00;99051.77;105179;1263;59640;-76
2023/01/12 01:28:39;;;;;;;38.90;30.60;;;;;;;3.34;100.00;99058.04;105155;1264;65814;-76
2023/01/12 01:31:10;;;;;;;38.50;27.80;;;;;;;3.35;100.00;99058.88;105183;1264;61345;-74
2023/01/12 01:33:36;;;;;;;;;;;;;;;3.37;100.00;99061.80;105187;1264;64285;-74
2023/01/12 01:36:03;;;;;;;35.00;24.90;;;;;;;3.38;100.00;99060.91;105164;1262;59692;-77
2023/01/12 01:38:31;;;;;;;36.60;25.20;;;;;;;3.39;100.00;99060.50;105154;1264;59759;-75
2023/01/12 01:40:58;;;;;;;33.90;24.30;;;;;;;3.40;100.00;99062.21;104973;1262;65655;-76
2023/01/12 01:43:26;;;;;;;32.50;25.40;;;;;;;3.40;100.00;99061.50;104950;1264;59628;-77
2023/01/12 01:46:02;;;;;;;39.20;29.20;;;;;;;3.41;100.00;99062.70;105128;1264;64546;-77
2023/01/12 01:48:32;;;;;;;37.80;30.20;;;;;;;3.42;100.00;99059.34;105138;1266;59730;-78
2023/01/12 01:51:03;;;;;;;;;;;;;;;3.43;100.00;99061.23;105735;1257;59733;-77
2023/01/12 01:53:35;;;;;;;35.70;27.90;;;;;;;3.43;100.00;99059.99;109317;1255;65958;-77
2023/01/12 01:56:11;;;;;;;42.30;31.10;;;;;;;3.44;100.00;99057.13;109336;1256;60726;-76
2023/01/12 01:58:45;;;;;;;38.40;30.30;;;;;;;3.46;100.00;99063.57;109327;1256;65311;-75
2023/01/12 02:01:12;;;;;;;37.00;29.90;;;;;;;3.47;100.00;99066.68;108997;1257;57352;-75
2023/01/12 02:03:40;;;;;;;35.30;27.50;;;;;;;3.48;100.00;99069.64;109103;1254;57424;-75
2023/01/12 02:06:07;;;;;;;35.70;27.40;;;;;;;3.49;100.00;99068.88;109344;1255;65428;-76
2023/01/12 02:08:51;;;;;;;37.90;29.20;;;;;;;3.50;100.00;99067.09;109071;1255;59996;-75
2023/01/12 02:17:00;;;;;;;35.70;30.20;;;;;;;3.57;100.00;99063.53;109339;1256;57480;-75
2023/01/12 02:19:45;;;;;;;35.60;29.50;;;;;;;3.59;100.00;99065.20;109355;1257;65485;-76
2023/01/12 02:22:34;;;;;;;35.70;28.70;;;;;;;3.62;100.00;99060.00;109358;1257;60719;-76
2023/01/12 02:25:35;;;;;;;34.40;28.40;;;;;;;3.65;100.00;99055.14;109358;1256;63778;-75
2023/01/12 02:28:29;;;;;;;31.70;28.10;;;;;;;3.67;100.00;99055.23;108697;1264;57411;-76
2023/01/12 02:31:23;;;;;;;35.30;30.50;;;;;;;3.68;100.00;99059.59;108624;1264;57435;-76
2023/01/12 02:34:17;;;;;;;40.90;33.40;;;;;;;3.68;100.00;99060.45;108736;1264;65587;-75
2023/01/12 02:37:00;;;;;;;43.60;37.80;;;;;;;3.69;100.00;99060.95;108731;1264;61105;-76
2023/01/12 02:39:36;;;;;;;41.50;30.40;;;;;;;3.71;100.00;99063.70;108686;1264;65199;-76
2023/01/12 02:45:18;;;;;;;41.50;31.80;;;;;;;3.71;100.00;99063.69;108719;1264;57424;-75
2023/01/12 02:47:50;;;;;;;42.40;33.80;;;;;;;3.71;100.00;99062.81;108717;1264;64522;-75
2023/01/12 02:50:24;;;;;;;43.20;33.50;;;;;;;3.72;100.00;99063.31;108695;1264;59776;-76
2023/01/12 02:52:57;;;;;;;42.80;32.10;;;;;;;3.72;100.00;99064.69;108673;1265;65122;-75
2023/01/12 02:55:27;;;;;;;38.60;30.70;;;;;;;3.73;100.00;99067.49;108679;1265;57366;-76
2023/01/12 02:57:55;;;;;;;41.10;32.70;;;;;;;3.75;100.00;99066.52;108737;1264;57483;-75
2023/01/12 03:00:37;;;;;;;38.10;30.50;;;;;;;3.76;100.00;99068.61;108680;1266;64448;-75
2023/01/12 03:03:05;;;;;;;38.90;29.40;;;;;;;3.75;100.00;99069.86;108706;1264;61303;-75
2023/01/12 03:05:32;;;;;;;37.10;29.90;;;;;;;3.74;100.00;99067.63;109120;1256;64827;-75
2023/01/12 03:08:02;;;;;;;38.00;30.90;;;;;;;3.73;100.00;99072.04;109306;1256;57340;-76
2023/01/12 03:10:47;;;;;;;38.80;33.80;;;;;;;3.73;100.00;99074.33;109327;1257;57242;-77
2023/01/12 03:13:15;;;;;;;42.20;32.80;;;;;;;3.73;100.00;99074.86;109024;1257;65598;-75
2023/01/12 03:15:49;;;;;;;44.00;32.40;;;;;;;3.74;100.00;99079.59;108999;1258;61096;-75
2023/01/12 03:18:26;;;;;;;48.60;36.60;;;;;;;3.74;100.00;99081.84;109343;1257;64827;-75
2023/01/12 03:20:58;;;;;;;63.50;41.60;;;;;;;3.77;100.00;99083.17;109313;1256;57362;-77
2023/01/12 03:23:51;;;;;;;69.60;46.60;;;;;;;3.79;100.00;99080.27;109362;1256;57405;-75
2023/01/12 03:26:24;;;;;;;66.80;46.00;;;;;;;3.81;100.00;99081.24;108655;1264;64077;-76
2023/01/12 03:28:58;;;;;;;70.30;45.80;;;;;;;3.83;100.00;99084.14;108720;1264;58589;-77
2023/01/12 03:31:25;;;;;;;66.90;45.80;;;;;;;3.84;100.00;99084.46;108655;1264;63767;-75
2023/01/12 03:33:53;;;;;;;64.80;44.80;;;;;;;3.85;100.00;99083.91;108677;1264;57394;-75
2023/01/12 03:36:25;;;;;;;67.20;45.20;;;;;;;3.85;100.00;99088.61;108711;1264;57349;-75
2023/01/12 03:39:06;;;;;;;58.80;40.40;;;;;;;3.86;100.00;99089.64;108684;1264;64110;-75
2023/01/12 03:41:42;;;;;;;55.60;38.60;;;;;;;3.87;100.00;99088.91;108709;1264;60743;-76
2023/01/12 03:44:18;;;;;;;63.70;42.10;;;;;;;3.89;100.00;99088.67;108664;1264;65608;-76
2023/01/12 03:46:56;;;;;;;65.30;42.40;;;;;;;3.90;100.00;99088.44;108665;1264;57455;-76
2023/01/12 03:49:35;;;;;;;68.30;43.00;;;;;;;3.92;100.00;99093.11;108672;1265;57467;-76
2023/01/12 03:52:06;;;;;;;70.00;40.80;;;;;;;3.93;100.00;99093.95;108453;1264;65068;-74
2023/01/12 03:54:36;;;;;;;53.70;38.20;;;;;;;3.94;100.00;99090.39;108682;1264;59996;-76
2023/01/12 03:57:05;;;;;;;60.90;40.80;;;;;;;3.96;100.00;99090.33;108666;1264;63741;-76
2023/01/12 03:59:32;;;;;;;46.40;33.10;;;;;;;3.97;100.00;99093.10;108680;1264;57453;-75
2023/01/12 04:01:59;;;;;;;51.00;35.60;;;;;;;3.99;100.00;99093.57;108600;1264;57511;-75
2023/01/12 04:04:27;;;;;;;56.10;38.40;;;;;;;4.00;100.00;99093.69;109239;1256;64724;-75
2023/01/12 04:06:53;;;;;;;56.30;40.40;;;;;;;4.02;100.00;99094.86;109369;1257;58422;-75
2023/01/12 04:09:21;;;;;;;43.40;34.50;;;;;;;4.03;100.00;99097.80;109328;1257;63665;-75
2023/01/12 04:14:33;;;;;;;49.60;38.60;;;;;;;4.05;100.00;99093.16;109312;1255;57310;-75
2023/01/12 04:17:00;;;;;;;54.50;40.60;;;;;;;4.06;100.00;99094.00;109602;1250;64098;-75
2023/01/12 04:19:26;;;;;;;48.90;38.40;;;;;;;4.06;100.00;99093.81;109617;1251;67274;-75
2023/01/12 04:24:38;;;;;;;44.10;35.00;;;;;;;4.07;100.00;99094.47;109687;1250;58248;-75
2023/01/12 04:27:04;;;;;;;41.70;34.10;;;;;;;4.09;100.00;99096.16;109673;1249;58178;-76
2023/01/12 04:29:31;;;;;;;38.90;31.20;;;;;;;4.11;100.00;99094.34;109658;1251;64856;-76
2023/01/12 04:31:58;;;;;;;37.80;30.90;;;;;;;4.12;100.00;99089.02;109730;1251;60718;-76
2023/01/12 04:34:24;;;;;;;45.10;37.60;;;;;;;4.13;100.00;99087.20;109712;1250;64795;-75
2023/01/12 04:36:51;;;;;;;44.20;33.10;;;;;;;4.13;100.00;99090.37;109624;1251;58206;-75
2023/01/12 04:39:17;;;;;;;43.00;35.30;;;;;;;4.14;100.00;99092.98;109683;1250;58243;-76
2023/01/12 04:41:44;;;;;;;35.80;30.60;;;;;;;4.14;100.00;99097.34;109675;1250;65859;-76
2023/01/12 04:44:10;;;;;;;38.40;30.20;;;;;;;4.14;100.00;99094.73;109688;1250;60981;-76
2023/01/12 04:46:38;;;;;;;33.10;27.10;;;;;;;4.14;100.00;99089.47;109715;1251;64096;-75
2023/01/12 04:49:04;;;;;;;34.20;30.30;;;;;;;4.12;100.00;99095.89;109680;1249;58242;-76
2023/01/12 04:51:31;;;;;;;35.50;30.60;;;;;;;4.09;100.00;99095.43;109712;1250;58328;-76
2023/01/12 04:53:58;;;;;;;37.60;31.80;;;;;;;4.08;100.00;99100.05;109711;1250;64890;-75
2023/01/12 04:56:24;;;;;;;46.30;37.30;;;;;;;4.07;100.00;99104.32;109677;1251;60115;-76
2023/01/12 04:58:58;;;;;;;46.50;38.90;;;;;;;4.06;100.00;99108.23;109691;1251;64125;-76
2023/01/12 05:01:26;;;;;;;44.50;35.20;;;;;;;4.06;100.00;99112.63;109726;1250;58151;-75
2023/01/12 05:03:56;;;;;;;39.90;32.90;;;;;;;4.05;100.00;99113.17;109754;1251;58344;-76
2023/01/12 05:06:23;;;;;;;34.70;29.50;;;;;;;4.05;100.00;99113.89;109727;1250;66063;-75
2023/01/12 05:11:36;;;;;;;34.80;28.50;;;;;;;4.05;100.00;99116.20;109683;1251;63809;-75
2023/01/12 05:14:03;;;;;;;33.40;27.80;;;;;;;4.05;100.00;99117.08;109711;1250;58237;-75
2023/01/12 05:16:30;;;;;;;36.10;31.00;;;;;;;4.04;100.00;99114.27;109706;1251;58941;-75
2023/01/12 05:18:56;;;;;;;36.90;30.20;;;;;;;4.05;100.00;99117.41;109755;1249;66316;-75
2023/01/12 05:21:28;;;;;;;37.80;33.50;;;;;;;4.06;100.00;99123.02;109731;1251;60703;-75
2023/01/12 05:23:55;;;;;;;38.80;34.60;;;;;;;4.06;100.00;99124.92;109686;1249;64967;-75
2023/01/12 05:26:22;;;;;;;38.90;34.70;;;;;;;4.07;100.00;99124.72;109738;1250;58179;-76
2023/01/12 05:28:51;;;;;;;42.70;38.20;;;;;;;4.07;100.00;99121.73;109755;1250;58498;-75
2023/01/12 05:31:18;;;;;;;47.50;39.00;;;;;;;4.08;100.00;99119.05;109347;1250;65273;-76
2023/01/12 05:33:45;;;;;;;42.30;35.90;;;;;;;4.08;100.00;99113.59;109724;1250;61158;-75
2023/01/12 05:36:14;;;;;;;41.10;34.20;;;;;;;4.07;100.00;99115.55;109662;1250;64178;-75
2023/01/12 05:38:41;;;;;;;38.60;33.10;;;;;;;4.08;100.00;99116.43;109655;1250;58321;-76
2023/01/12 05:41:11;;;;;;;36.70;30.70;;;;;;;4.07;100.00;99117.33;109760;1250;58219;-76
2023/01/12 05:43:50;;;;;;;;;;;;;;;4.06;100.00;99119.83;109707;1253;66000;-75
2023/01/12 05:46:23;;;;;;;37.00;29.40;;;;;;;4.05;100.00;99120.77;109739;1251;60703;-75
2023/01/12 05:48:51;;;;;;;37.50;32.20;;;;;;;4.04;100.00;99123.09;109738;1250;64746;-75
2023/01/12 05:51:18;;;;;;;43.50;35.20;;;;;;;4.03;100.00;99123.83;109604;1250;58138;-76
2023/01/12 05:53:45;;;;;;;40.90;35.60;;;;;;;4.02;100.00;99124.75;109702;1251;58160;-76
2023/01/12 05:56:16;;;;;;;37.00;32.90;;;;;;;4.01;100.00;99128.45;109741;1249;64707;-75
2023/01/12 05:58:47;;;;;;;39.50;33.40;;;;;;;4.01;100.00;99129.53;109724;1251;61207;-76
2023/01/12 06:01:13;;;;;;;40.20;34.60;;;;;;;4.00;100.00;99129.20;109710;1249;63985;-75
2023/01/12 06:03:41;;;;;;;49.60;40.50;;;;;;;4.00;100.00;99135.91;109370;1249;58259;-76
2023/01/12 06:06:07;;;;;;;45.40;38.60;;;;;;;3.99;100.00;99131.38;109729;1249;58779;-76
2023/01/12 06:08:34;;;;;;;34.70;29.70;;;;;;;3.98;100.00;99128.22;109726;1251;66150;-78
2023/01/12 06:11:02;;;;;;;32.50;25.60;;;;;;;3.98;100.00;99130.34;109792;1250;60691;-75
2023/01/12 06:16:13;;;;;;;35.80;28.90;;;;;;;3.98;100.00;99134.91;109682;1251;58214;-75
2023/01/12 06:18:40;;;;;;;32.90;27.80;;;;;;;3.98;100.00;99136.66;109446;1251;58125;-76
2023/01/12 06:21:08;;;;;;;28.20;23.80;;;;;;;3.98;100.00;99133.86;109738;1251;66139;-76
2023/01/12 06:23:35;;;;;;;25.70;20.80;;;;;;;3.98;100.00;99134.90;109758;1251;60381;-76
2023/01/12 06:26:04;;;;;;;27.40;20.00;;;;;;;3.99;100.00;99139.79;109697;1250;64700;-76
2023/01/12 06:28:31;;;;;;;24.20;18.80;;;;;;;3.99;100.00;99149.10;109641;1251;58216;-76
2023/01/12 06:30:59;;;;;;;22.40;19.10;;;;;;;3.99;100.00;99151.91;109711;1249;58259;-76
2023/01/12 06:33:27;;;;;;;22.20;18.70;;;;;;;4.00;100.00;99151.36;109672;1251;64929;-76
2023/01/12 06:35:54;;;;;;;23.60;19.80;;;;;;;4.00;100.00;99149.26;109767;1250;59680;-76
2023/01/12 06:38:23;;;;;;;22.70;19.60;;;;;;;3.99;100.00;99148.42;109768;1251;64743;-76
2023/01/12 06:40:50;;;;;;;19.40;17.20;;;;;;;3.99;100.00;99149.48;109709;1252;58559;-76
2023/01/12 06:43:18;;;;;;;20.10;16.40;;;;;;;3.97;100.00;99147.77;109714;1249;58137;-76
2023/01/12 06:45:44;;;;;;;21.80;17.80;;;;;;;3.95;100.00;99150.27;108973;1251;1002425;-75
2023/01/12 06:48:11;;;;;;;25.40;20.80;;;;;;;3.94;100.00;99153.48;109721;1253;59873;-75
2023/01/12 06:50:38;;;;;;;27.10;23.70;;;;;;;3.94;100.00;99150.88;109538;1250;63708;-75
2023/01/12 06:53:08;;;;;;;30.30;25.90;;;;;;;3.92;100.00;99148.48;109707;1251;58234;-75
2023/01/12 06:55:34;;;;;;;;;;;;;;;3.91;100.00;99150.28;109776;1250;58388;-76
2023/01/12 06:58:03;;;;;;;23.70;20.60;;;;;;;3.88;100.00;99151.61;109714;1251;65919;-76
2023/01/12 07:00:31;;;;;;;29.70;25.00;;;;;;;3.87;100.00;99153.05;109752;1250;60263;-75
2023/01/12 07:02:57;;;;;;;30.30;26.90;;;;;;;3.88;100.00;99154.09;109363;1250;62936;-75
2023/01/12 07:05:25;;;;;;;32.30;28.80;;;;;;;3.88;100.00;99154.95;109660;1249;58611;-76
2023/01/12 07:07:59;;;;;;;30.50;24.30;;;;;;;3.88;100.00;99153.56;109728;1251;58092;-76
2023/01/12 07:10:26;;;;;;;33.10;26.10;;;;;;;3.88;100.00;99154.44;109622;1251;73766;-85
2023/01/12 07:12:52;;;;;;;30.30;25.20;;;;;;;3.87;100.00;99156.23;109445;1251;59720;-84
2023/01/12 07:15:19;;;;;;;27.40;24.40;;;;;;;3.86;100.00;99160.31;109474;1255;63800;-83
2023/01/12 07:17:46;;;;;;;30.70;24.60;;;;;;;3.85;100.00;99163.15;109605;1250;58191;-78
2023/01/12 07:20:12;;;;;;;28.90;24.50;;;;;;;3.85;100.00;99165.46;109671;1251;58355;-80
2023/01/12 07:22:39;;;;;;;29.80;25.70;;;;;;;3.83;100.00;99165.69;109706;1251;66152;-91
2023/01/12 07:25:06;;;;;;;38.30;27.30;;;;;;;3.83;100.00;99171.34;109633;1251;60322;-81
2023/01/12 07:27:35;;;;;;;30.00;23.90;;;;;;;3.84;100.00;99177.62;109731;1249;63868;-82
2023/01/12 07:30:02;;;;;;;26.80;21.90;;;;;;;3.84;100.00;99175.32;109339;1250;58221;-82
2023/01/12 07:32:29;;;;;;;30.80;24.30;;;;;;;3.84;100.00;99175.16;109710;1249;58196;-83
2023/01/12 07:34:56;;;;;;;31.90;26.50;;;;;;;3.84;100.00;99177.78;109777;1250;66354;-79
2023/01/12 07:37:23;;;;;;;29.40;24.10;;;;;;;3.83;100.00;99183.96;109692;1253;60133;-82
2023/01/12 07:39:49;;;;;;;34.70;26.80;;;;;;;3.84;100.00;99185.16;109692;1251;63894;-82
2023/01/12 07:42:22;;;;;;;37.80;29.90;;;;;;;3.85;100.00;99184.94;109660;1251;58089;-82
2023/01/12 07:44:48;;;;;;;37.60;29.00;;;;;;;3.86;100.00;99185.06;109737;1250;58426;-81
2023/01/12 07:47:15;;;;;;;38.80;31.60;;;;;;;3.87;100.00;99191.02;109671;1251;64800;-81
2023/01/12 07:49:42;;;;;;;38.50;32.90;;;;;;;3.87;100.00;99192.78;109537;1251;61075;-80
2023/01/12 07:52:13;;;;;;;35.10;31.30;;;;;;;3.87;100.00;99196.30;109700;1251;65144;-80
2023/01/12 07:54:39;;;;;;;37.40;32.60;;;;;;;3.87;100.00;99198.07;109505;1251;58202;-80
2023/01/12 07:57:09;;;;;;;43.00;38.50;;;;;;;3.87;100.00;99198.25;109683;1251;58232;-78
2023/01/12 07:59:35;;;;;;;42.30;37.40;;;;;;;3.88;100.00;99201.39;109717;1251;66073;-79
2023/01/12 08:02:03;;;;;;;40.50;35.90;;;;;;;3.88;100.00;99201.55;109712;1251;60773;-79
2023/01/12 08:04:30;;;;;;;38.80;34.10;;;;;;;3.88;100.00;99202.42;109330;1251;64967;-79
2023/01/12 08:06:57;;;;;;;39.40;33.70;;;;;;;3.89;100.00;99203.08;109550;1251;58260;-81
2023/01/12 08:09:24;;;;;;;37.90;31.90;;;;;;;3.90;100.00;99197.78;109617;1251;58099;-80
2023/01/12 08:11:50;;;;;;;43.20;35.80;;;;;;;3.89;100.00;99190.43;109597;1251;63973;-82
2023/01/12 08:14:43;;;;;;;44.80;38.30;;;;;;;3.88;100.00;99182.21;109382;1251;61264;-80
2023/01/12 08:17:17;;;;;;;46.50;41.30;;;;;;;3.87;100.00;99177.86;108938;1260;63720;-80
2023/01/12 08:19:54;;;;;;;43.30;33.70;;;;;;;3.86;100.00;99182.83;108793;1260;58297;-82
2023/01/12 08:22:27;;;;;;;37.10;29.20;;;;;;;3.85;100.00;99189.16;108961;1259;58253;-80
2023/01/12 08:25:02;;;;;;;37.60;28.60;;;;;;;3.86;100.00;99194.59;108970;1259;66194;-81
2023/01/12 08:27:34;;;;;;;32.40;26.80;;;;;;;3.88;100.00;99203.28;108825;1259;60176;-80
2023/01/12 08:30:03;;;;;;;34.30;26.90;;;;;;;3.93;100.00;99202.41;108962;1259;63661;-80
2023/01/12 08:32:31;;;;;;;35.40;26.20;;;;;;;3.98;100.00;99200.80;108957;1260;58236;-82
2023/01/12 08:34:59;;;;;;;39.30;30.30;;;;;;;4.04;100.00;99196.23;109028;1260;58333;-79
2023/01/12 08:37:27;;;;;;;37.10;28.90;;;;;;;4.06;100.00;99192.42;108926;1260;66278;-82
2023/01/12 08:39:54;;;;;;;39.40;30.10;;;;;;;4.11;100.00;99189.80;108966;1260;60775;-79
2023/01/12 08:42:24;;;;;;;38.00;29.10;;;;;;;4.19;100.00;99186.33;108926;1260;63712;-80
2023/01/12 08:44:50;;;;;;;45.40;34.10;;;;;;;4.26;100.00;99185.52;108919;1259;58153;-80
2023/01/12 08:47:20;;;;;;;43.40;35.10;;;;;;;4.32;100.00;99184.26;108984;1259;58175;-82
2023/01/12 08:49:46;;;;;;;50.30;38.50;;;;;;;4.40;100.00;99179.40;108947;1259;65914;-81
2023/01/12 08:52:15;;;;;;;42.10;32.40;;;;;;;4.49;100.00;99177.42;109009;1260;60752;-81
2023/01/12 08:54:41;;;;;;;36.60;28.00;;;;;;;4.60;100.00;99181.94;109413;1251;64373;-80
2023/01/12 08:57:08;;;;;;;31.70;23.50;;;;;;;4.70;100.00;99185.39;109368;1251;58183;-81
2023/01/12 08:59:34;;;;;;;30.40;22.00;;;;;;;4.81;100.00;99183.02;109606;1251;58101;-80
2023/01/12 09:02:01;;;;;;;25.70;18.80;;;;;;;4.93;100.00;99175.17;109574;1251;65862;-81
2023/01/12 09:04:28;;;;;;;22.00;16.70;;;;;;;5.05;100.00;99173.25;109654;1251;59796;-81
2023/01/12 09:06:55;;;;;;;22.60;14.90;;;;;;;5.18;100.00;99171.99;109701;1251;65491;-78
2023/01/12 09:09:22;;;;;;;20.50;13.70;;;;;;;5.31;100.00;99171.78;109683;1251;58174;-78
2023/01/12 09:11:49;;;;;;;19.20;13.10;;;;;;;5.44;100.00;99174.56;109754;1251;58351;-78
2023/01/12 09:14:16;;;;;;;16.70;12.40;;;;;;;5.57;100.00;99172.08;109776;1250;65802;-79
2023/01/12 09:16:43;;;;;;;20.20;12.90;;;;;;;5.70;100.00;99165.16;109758;1250;61150;-79
2023/01/12 09:19:10;;;;;;;15.40;11.90;;;;;;;5.81;100.00;99162.02;109706;1249;64304;-79
2023/01/12 09:21:39;;;;;;;15.10;9.50;;;;;;;5.92;100.00;99160.13;109477;1249;58248;-79
2023/01/12 09:24:06;;;;;;;12.50;8.70;;;;;;;6.04;100.00;99154.50;109727;1249;58036;-79
2023/01/12 09:26:38;;;;;;;14.80;8.50;;;;;;;6.16;100.00;99143.74;109704;1251;64852;-79
2023/01/12 09:29:06;;;;;;;11.20;6.10;;;;;;;6.26;100.00;99139.00;109697;1249;60710;-78
2023/01/12 09:31:35;;;;;;;12.10;7.20;;;;;;;6.37;100.00;99138.33;109685;1250;64072;-79
2023/01/12 09:34:02;;;;;;;9.60;6.30;;;;;;;6.47;100.00;99141.38;109530;1250;58203;-78
2023/01/12 09:36:31;;;;;;;10.40;5.90;;;;;;;6.56;100.00;99141.08;109414;1251;58209;-80
2023/01/12 09:39:00;;;;;;;9.10;5.00;;;;;;;6.67;100.00;99132.63;109562;1251;65147;-78
2023/01/12 09:47:38;;;;;;;8.60;4.80;;;;;;;6.97;100.00;99127.29;109661;1251;58215;-79
2023/01/12 09:50:08;;;;;;;9.50;4.60;;;;;;;7.04;100.00;99126.73;109720;1250;58069;-78
2023/01/12 09:53:10;;;;;;;7.90;4.60;;;;;;;7.13;100.00;99127.91;109672;1249;66013;-79
2023/01/12 09:56:02;;;;;;;8.00;4.50;;;;;;;7.19;100.00;99124.05;108992;1258;59845;-79
2023/01/12 09:58:52;;;;;;;6.90;3.80;;;;;;;7.26;100.00;99121.56;108971;1260;65564;-80
2023/01/12 10:01:21;;;;;;;6.60;3.50;;;;;;;7.33;100.00;99120.70;108979;1258;58253;-79
2023/01/12 10:03:47;;;;;;;6.60;3.50;;;;;;;7.37;100.00;99120.27;108844;1257;58202;-79
2023/01/12 10:06:19;;;;;;;5.80;3.80;;;;;;;7.42;100.00;99114.73;109020;1258;65348;-79
2023/01/12 10:08:55;;;;;;;6.80;3.60;;;;;;;7.46;100.00;99112.41;109000;1260;60917;-79
2023/01/12 10:11:34;;;;;;;6.40;3.40;;;;;;;7.52;100.00;99112.29;109012;1260;64214;-79
2023/01/12 10:14:09;;;;;;;6.70;3.20;;;;;;;7.57;100.00;99110.77;109016;1258;58228;-80
2023/01/12 10:17:14;;;;;;;7.10;3.50;;;;;;;7.62;100.00;99109.59;109010;1257;58277;-78
2023/01/12 10:19:55;;;;;;;4.60;2.50;;;;;;;7.68;100.00;99108.39;108973;1257;65325;-79
2023/01/12 10:22:36;;;;;;;4.90;2.30;;;;;;;7.77;100.00;99096.82;109010;1260;61154;-79
2023/01/12 10:25:22;;;;;;;5.80;2.70;;;;;;;7.83;100.00;99089.39;108994;1259;65028;-79
2023/01/12 10:27:51;;;;;;;5.00;2.60;;;;;;;7.89;100.00;99095.41;109025;1259;58254;-80
2023/01/12 10:30:26;;;;;;;4.00;2.30;;;;;;;7.95;100.00;99094.06;109032;1260;58265;-79
2023/01/12 10:32:53;;;;;;;6.10;2.80;;;;;;;7.99;100.00;99094.03;109721;1250;65948;-80
2023/01/12 10:35:22;;;;;;;5.10;2.60;;;;;;;8.05;100.00;99091.38;109393;1251;60287;-80
2023/01/12 10:37:52;;;;;;;6.90;3.30;;;;;;;8.10;100.00;99091.45;109749;1249;64726;-80
2023/01/12 10:40:26;;;;;;;5.70;2.60;;;;;;;8.18;100.00;99093.14;109664;1249;58190;-79
2023/01/12 10:43:18;;;;;;;5.90;3.00;;;;;;;8.26;100.00;99088.45;109746;1251;58093;-79
2023/01/12 10:45:54;;;;;;;6.20;3.20;;;;;;;8.30;100.00;99083.41;109381;1250;64125;-80
2023/01/12 10:48:21;;;;;;;4.90;3.20;;;;;;;8.34;100.00;99085.67;109683;1250;60744;-79
2023/01/12 10:51:00;;;;;;;8.60;3.40;;;;;;;8.39;100.00;99084.03;109239;1254;62775;-80
2023/01/12 10:53:37;;;;;;;7.30;3.30;;;;;;;8.46;100.00;99077.81;109698;1251;58216;-80
2023/01/12 10:56:31;;;;;;;4.90;2.60;;;;;;;8.51;100.00;99077.13;109550;1253;58345;-80
2023/01/12 10:58:57;;;;;;;4.70;2.90;;;;;;;8.55;100.00;99080.64;109676;1249;65155;-79
2023/01/12 11:01:24;;;;;;;5.80;3.30;;;;;;;8.57;100.00;99074.14;109733;1250;61105;-79
2023/01/12 11:04:04;;;;;;;6.60;3.30;;;;;;;8.61;100.00;99072.67;109656;1249;65026;-78
2023/01/12 11:06:32;;;;;;;7.40;4.20;;;;;;;8.67;100.00;99073.94;109527;1251;58175;-79
2023/01/12 11:09:26;;;;;;;6.60;4.00;;;;;;;8.71;100.00;99077.78;109704;1249;58225;-80
2023/01/12 11:11:55;;;;;;;9.20;4.60;;;;;;;8.75;100.00;99075.07;109600;1251;65893;-79
2023/01/12 11:14:39;;;;;;;6.80;3.60;;;;;;;8.80;100.00;99071.20;109736;1250;59757;-78
2023/01/12 11:17:30;;;;;;;7.50;4.40;;;;;;;8.82;100.00;99075.20;109699;1249;64720;-79
2023/01/12 11:19:59;;;;;;;7.10;3.90;;;;;;;8.82;100.00;99070.24;109683;1249;58146;-78
2023/01/12 11:22:30;;;;;;;7.00;4.30;;;;;;;8.85;100.00;99068.98;109749;1250;58146;-77
2023/01/12 11:25:06;;;;;;;8.80;4.60;;;;;;;8.89;100.00;99065.55;109712;1250;65975;-79
2023/01/12 11:27:43;;;;;;;6.50;3.50;;;;;;;8.91;100.00;99066.33;109705;1250;59796;-79
2023/01/12 11:30:33;;;;;;;5.70;2.60;;;;;;;8.94;100.00;99065.61;109703;1249;63993;-79
2023/01/12 11:33:07;;;;;;;7.00;2.70;;;;;;;8.93;100.00;99066.35;109668;1250;58239;-78
2023/01/12 11:36:08;;;;;;;6.90;3.30;;;;;;;8.94;100.00;99063.48;109729;1250;58079;-79
2023/01/12 11:38:41;;;;;;;5.40;3.00;;;;;;;8.95;100.00;99061.14;108991;1259;64870;-79
2023/01/12 11:41:33;;;;;;;6.10;3.00;;;;;;;8.96;100.00;99054.70;108952;1259;58449;-79
2023/01/12 11:44:23;;;;;;;5.90;2.50;;;;;;;8.96;100.00;99056.60;108935;1259;64861;-79
2023/01/12 11:47:03;;;;;;;3.90;2.00;;;;;;;8.96;100.00;99053.45;108841;1259;58355;-80
2023/01/12 11:49:48;;;;;;;7.70;2.40;;;;;;;8.95;100.00;99053.30;108792;1259;58500;-80
2023/01/12 11:52:16;;;;;;;4.40;2.30;;;;;;;8.95;100.00;99052.95;108977;1259;64886;-79
2023/01/12 11:54:42;;;;;;;4.10;2.10;;;;;;;8.93;100.00;99053.45;108980;1258;60711;-78
2023/01/12 11:57:41;;;;;;;5.90;2.00;;;;;;;8.90;100.00;99044.95;108769;1259;64741;-79
2023/01/12 12:00:35;;;;;;;4.90;2.00;;;;;;;8.85;100.00;99034.43;108934;1259;58244;-79
2023/01/12 12:03:11;;;;;;;7.00;2.20;;;;;;;8.83;100.00;99031.40;108972;1259;58148;-79
2023/01/12 12:05:51;;;;;;;3.50;1.70;;;;;;;8.82;100.00;99026.14;108969;1259;65471;-79
2023/01/12 12:08:36;;;;;;;;;;;;;;;8.80;100.00;99023.55;108957;1259;60777;-78